Time;durP1;ratioP1;P1;durP2;ratioP2;P2;SDS_P1;SDS_P2;PMS_P1;PMS_P2;Temp;Humidity;BMP_temperature;BMP_pressure;BME280_temperature;BME280_humidity;BME280_pressure;Samples;Min_cycle;Max_cycle;Signal;HPM_P1;HPM_P2
2021/03/03 00:01:27;;;;;;;32.53;14.82;;;8.20;99.90;;;;;;5065694;28;20136;-72
2021/03/03 00:03:52;;;;;;;39.72;15.25;;;8.10;99.90;;;;;;5065087;28;20052;-71
2021/03/03 00:06:18;;;;;;;41.33;16.65;;;8.10;99.90;;;;;;5063895;28;20393;-72
2021/03/03 00:08:44;;;;;;;35.50;15.73;;;8.00;99.90;;;;;;5062032;28;20021;-72
2021/03/03 00:11:09;;;;;;;36.58;15.10;;;8.00;99.90;;;;;;5070794;28;20029;-73
2021/03/03 00:13:35;;;;;;;37.60;14.55;;;8.00;99.90;;;;;;5072274;28;20533;-74
2021/03/03 00:16:00;;;;;;;36.50;16.13;;;8.00;99.90;;;;;;5070419;28;20502;-74
2021/03/03 00:18:26;;;;;;;36.45;16.20;;;7.90;99.90;;;;;;5069634;28;20037;-73
2021/03/03 00:20:52;;;;;;;43.00;15.80;;;7.90;99.90;;;;;;5069713;28;20079;-72
2021/03/03 00:23:17;;;;;;;33.97;15.27;;;7.80;99.90;;;;;;5070224;28;20031;-72
2021/03/03 00:29:05;;;;;;;35.90;15.55;;;7.80;99.90;;;;;;5066761;28;20059;-72
2021/03/03 00:31:30;;;;;;;34.75;15.80;;;7.80;99.90;;;;;;5072040;28;20029;-72
2021/03/03 00:33:56;;;;;;;33.33;15.88;;;7.90;99.90;;;;;;5070485;28;20025;-73
2021/03/03 00:36:25;;;;;;;29.95;14.05;;;7.90;99.90;;;;;;5069892;28;20398;-72
2021/03/03 00:38:50;;;;;;;34.55;15.27;;;8.00;99.90;;;;;;5071029;28;20040;-72
2021/03/03 00:41:16;;;;;;;39.80;15.48;;;7.90;99.90;;;;;;5075100;28;20077;-72
2021/03/03 00:43:41;;;;;;;41.50;14.73;;;7.80;99.90;;;;;;5072860;28;20028;-73
2021/03/03 00:46:08;;;;;;;33.58;14.70;;;7.70;99.90;;;;;;5075690;28;20016;-72
2021/03/03 00:48:33;;;;;;;34.75;16.25;;;7.60;99.90;;;;;;5072425;28;20029;-74
2021/03/03 00:50:59;;;;;;;32.15;15.68;;;7.60;99.90;;;;;;5071141;28;20039;-73
2021/03/03 00:53:25;;;;;;;33.85;15.02;;;7.60;99.90;;;;;;5075405;28;20032;-73
2021/03/03 00:55:51;;;;;;;42.50;15.52;;;7.70;99.90;;;;;;5069701;28;20485;-74
2021/03/03 00:58:17;;;;;;;38.92;15.82;;;7.60;99.90;;;;;;5073714;28;20020;-74
2021/03/03 01:00:43;;;;;;;35.35;16.02;;;7.70;99.90;;;;;;5085172;28;20035;-74
2021/03/03 01:03:09;;;;;;;30.88;14.48;;;7.70;99.90;;;;;;5073727;28;20052;-71
2021/03/03 01:05:34;;;;;;;31.77;16.17;;;7.60;99.90;;;;;;5075589;28;20339;-72
2021/03/03 01:08:00;;;;;;;34.80;14.30;;;7.60;99.90;;;;;;5073154;28;20035;-72
2021/03/03 01:10:25;;;;;;;34.50;15.18;;;7.50;99.90;;;;;;5074365;28;20028;-72
2021/03/03 01:12:51;;;;;;;35.17;14.60;;;7.60;99.90;;;;;;5072866;28;20123;-72
2021/03/03 01:15:17;;;;;;;34.30;15.30;;;7.60;99.90;;;;;;5074116;28;20032;-73
2021/03/03 01:17:42;;;;;;;30.25;15.15;;;7.50;99.90;;;;;;5074719;28;20032;-73
2021/03/03 01:20:10;;;;;;;37.08;15.85;;;7.50;99.90;;;;;;5074582;28;20546;-74
2021/03/03 01:22:36;;;;;;;41.67;15.30;;;7.40;99.90;;;;;;5074528;28;20033;-74
2021/03/03 01:25:02;;;;;;;41.40;15.65;;;7.40;99.90;;;;;;5074519;28;20024;-74
2021/03/03 01:27:27;;;;;;;33.40;13.73;;;7.40;99.90;;;;;;5074951;28;20020;-74
2021/03/03 01:29:53;;;;;;;38.53;16.20;;;7.40;99.90;;;;;;5073310;28;20038;-73
2021/03/03 01:32:18;;;;;;;32.03;14.38;;;7.30;99.90;;;;;;5072853;28;20047;-72
2021/03/03 01:34:44;;;;;;;27.27;13.43;;;7.30;99.90;;;;;;5073413;28;20032;-72
2021/03/03 01:37:09;;;;;;;35.28;15.23;;;7.20;99.90;;;;;;5074517;28;20550;-72
2021/03/03 01:39:35;;;;;;;29.35;13.70;;;7.10;99.90;;;;;;5073508;28;20024;-73
2021/03/03 01:42:01;;;;;;;34.75;14.95;;;7.10;99.90;;;;;;5072921;28;20027;-75
2021/03/03 01:44:26;;;;;;;32.78;14.93;;;7.10;99.90;;;;;;5074022;28;20048;-74
2021/03/03 01:46:52;;;;;;;38.25;14.00;;;7.10;99.90;;;;;;5072464;28;20427;-73
2021/03/03 01:49:17;;;;;;;29.45;14.20;;;7.00;99.90;;;;;;5072982;28;20540;-72
2021/03/03 01:51:43;;;;;;;36.72;14.40;;;7.00;99.90;;;;;;5073440;28;20075;-74
2021/03/03 01:54:09;;;;;;;43.95;16.95;;;7.00;99.90;;;;;;5073803;28;20031;-74
2021/03/03 01:56:35;;;;;;;32.90;15.60;;;7.00;99.90;;;;;;5074254;28;20033;-73
2021/03/03 01:59:01;;;;;;;32.28;14.85;;;7.00;99.90;;;;;;5074557;28;20063;-71
2021/03/03 02:01:26;;;;;;;33.85;14.75;;;7.10;99.90;;;;;;5080058;28;20063;-74
2021/03/03 02:03:52;;;;;;;31.25;13.98;;;7.10;99.90;;;;;;5073257;28;20538;-73
2021/03/03 02:06:28;;;;;;;36.30;13.82;;;7.00;99.90;;;;;;5073869;28;20113;-73
2021/03/03 02:09:02;;;;;;;29.42;14.50;;;6.90;99.90;;;;;;5074230;28;20036;-73
2021/03/03 02:11:42;;;;;;;38.22;15.27;;;6.90;99.90;;;;;;5073675;28;20481;-72
2021/03/03 02:14:15;;;;;;;28.20;13.82;;;6.90;99.90;;;;;;5073311;28;20033;-72
2021/03/03 02:16:41;;;;;;;39.38;14.48;;;6.80;99.90;;;;;;5065361;28;20512;-75
2021/03/03 02:19:14;;;;;;;37.80;15.10;;;6.80;99.90;;;;;;5073694;28;20024;-74
2021/03/03 02:21:45;;;;;;;39.70;15.98;;;6.70;99.90;;;;;;5074059;28;20028;-74
2021/03/03 02:24:15;;;;;;;37.47;15.15;;;6.70;99.90;;;;;;5072228;28;20024;-73
2021/03/03 02:26:42;;;;;;;34.80;15.93;;;6.60;99.90;;;;;;5072287;28;20473;-74
2021/03/03 02:29:13;;;;;;;37.15;16.67;;;6.60;99.90;;;;;;5073536;28;20419;-73
2021/03/03 02:31:42;;;;;;;37.95;15.50;;;6.60;99.90;;;;;;5072123;28;20051;-73
2021/03/03 02:34:09;;;;;;;35.05;15.13;;;6.60;99.90;;;;;;5072208;28;20044;-73
2021/03/03 02:36:36;;;;;;;40.05;16.15;;;6.60;99.90;;;;;;5073465;28;20104;-74
2021/03/03 02:39:05;;;;;;;35.22;13.80;;;6.60;99.90;;;;;;5073239;28;20017;-74
2021/03/03 02:41:32;;;;;;;31.20;14.80;;;6.50;99.90;;;;;;5071688;28;20555;-73
2021/03/03 02:44:00;;;;;;;38.15;15.77;;;6.50;99.90;;;;;;5073340;28;20521;-74
2021/03/03 02:46:26;;;;;;;;;;;6.60;99.90;;;;;;5069439;28;20033;-73
2021/03/03 02:48:53;;;;;;;33.70;14.02;;;6.50;99.90;;;;;;5070370;28;20416;-73
2021/03/03 02:51:18;;;;;;;40.95;15.38;;;6.50;99.90;;;;;;5071186;28;20037;-73
2021/03/03 02:53:44;;;;;;;35.70;15.77;;;6.50;99.90;;;;;;5072156;28;20027;-73
2021/03/03 02:56:10;;;;;;;36.33;14.65;;;6.40;99.90;;;;;;5073056;28;20377;-73
2021/03/03 02:58:36;;;;;;;28.83;13.70;;;6.40;99.90;;;;;;5072373;28;20029;-73
2021/03/03 03:01:04;;;;;;;29.70;13.90;;;6.40;99.90;;;;;;5067932;28;20025;-73
2021/03/03 03:03:46;;;;;;;35.35;14.82;;;6.40;99.90;;;;;;5072699;28;20044;-73
2021/03/03 03:06:27;;;;;;;38.05;16.05;;;6.40;99.90;;;;;;5073063;28;20477;-73
2021/03/03 03:08:57;;;;;;;39.10;15.40;;;6.40;99.90;;;;;;5071900;28;20077;-75
2021/03/03 03:11:28;;;;;;;37.58;16.52;;;6.40;99.90;;;;;;5073102;28;20024;-74
2021/03/03 03:14:01;;;;;;;32.08;15.10;;;6.40;99.90;;;;;;5071386;28;20033;-73
2021/03/03 03:16:28;;;;;;;35.72;15.00;;;6.50;99.90;;;;;;5073074;28;20028;-73
2021/03/03 03:18:57;;;;;;;37.25;15.50;;;6.50;99.90;;;;;;5070727;28;20024;-72
2021/03/03 03:21:28;;;;;;;35.78;14.40;;;6.50;99.90;;;;;;5070671;28;20527;-73
2021/03/03 03:23:56;;;;;;;32.85;15.70;;;6.40;99.90;;;;;;5071943;28;20031;-73
2021/03/03 03:26:23;;;;;;;32.47;14.10;;;6.40;99.90;;;;;;5072706;28;20028;-74
2021/03/03 03:28:49;;;;;;;39.45;15.85;;;6.30;99.90;;;;;;5071908;28;20032;-72
2021/03/03 03:31:17;;;;;;;35.30;15.80;;;6.30;99.90;;;;;;5072772;28;20116;-74
2021/03/03 03:33:43;;;;;;;32.13;14.87;;;6.30;99.90;;;;;;5071173;28;20028;-74
2021/03/03 03:36:09;;;;;;;29.83;13.68;;;6.20;99.90;;;;;;5072005;28;20308;-73
2021/03/03 03:38:35;;;;;;;36.30;14.57;;;6.20;99.90;;;;;;5072527;28;20039;-73
2021/03/03 03:41:04;;;;;;;35.15;14.73;;;6.20;99.90;;;;;;5072252;28;20020;-73
2021/03/03 03:43:32;;;;;;;36.80;14.63;;;6.10;99.90;;;;;;5071895;28;20095;-73
2021/03/03 03:46:01;;;;;;;37.45;15.68;;;6.20;99.90;;;;;;5071188;28;20020;-72
2021/03/03 03:48:28;;;;;;;28.60;13.63;;;6.20;99.90;;;;;;5070707;28;20024;-72
2021/03/03 03:50:55;;;;;;;24.40;10.13;;;6.10;99.90;;;;;;5071988;28;20021;-73
2021/03/03 03:53:21;;;;;;;42.75;15.07;;;6.10;99.90;;;;;;5072326;28;20408;-73
2021/03/03 03:55:47;;;;;;;33.30;14.65;;;6.10;99.90;;;;;;5071024;28;20382;-73
2021/03/03 03:58:13;;;;;;;28.48;13.25;;;6.10;99.90;;;;;;5071164;28;20039;-73
2021/03/03 04:00:41;;;;;;;33.92;14.32;;;6.10;99.90;;;;;;5070770;28;20051;-73
2021/03/03 04:03:07;;;;;;;35.67;14.73;;;6.10;99.90;;;;;;5071494;28;20073;-73
2021/03/03 04:05:32;;;;;;;34.53;15.38;;;6.00;99.90;;;;;;5071115;28;20032;-73
2021/03/03 04:07:58;;;;;;;34.72;15.32;;;6.10;99.90;;;;;;5070461;28;20472;-73
2021/03/03 04:10:26;;;;;;;40.55;16.45;;;6.10;99.90;;;;;;5072168;28;20051;-72
2021/03/03 04:12:52;;;;;;;37.20;15.90;;;6.10;99.90;;;;;;5074848;28;20032;-73
2021/03/03 04:15:18;;;;;;;31.20;14.38;;;6.10;99.90;;;;;;5074884;28;20108;-72
2021/03/03 04:17:44;;;;;;;37.40;15.00;;;6.00;99.90;;;;;;5075692;28;20020;-72
2021/03/03 04:20:11;;;;;;;34.78;14.60;;;6.00;99.90;;;;;;5074604;28;20054;-73
2021/03/03 04:22:38;;;;;;;28.17;14.00;;;6.00;99.90;;;;;;5075824;28;20488;-73
2021/03/03 04:25:06;;;;;;;34.22;14.32;;;6.00;99.90;;;;;;5076012;28;20430;-72
2021/03/03 04:27:31;;;;;;;32.90;15.15;;;5.90;99.90;;;;;;5076213;28;20049;-72
2021/03/03 04:29:57;;;;;;;31.95;13.98;;;6.00;99.90;;;;;;5073961;28;20496;-72
2021/03/03 04:32:23;;;;;;;34.15;14.00;;;5.90;99.90;;;;;;5076165;28;20112;-73
2021/03/03 04:34:48;;;;;;;37.58;15.55;;;5.90;99.90;;;;;;5074387;28;20025;-72
2021/03/03 04:37:14;;;;;;;41.05;16.02;;;5.90;99.90;;;;;;5075776;28;20031;-72
2021/03/03 04:39:39;;;;;;;33.55;15.02;;;5.90;99.90;;;;;;5075051;28;20112;-73
2021/03/03 04:42:05;;;;;;;38.35;14.40;;;5.90;99.90;;;;;;5075812;28;20101;-72
2021/03/03 04:44:32;;;;;;;35.20;14.77;;;5.90;99.90;;;;;;5075695;28;20031;-72
2021/03/03 04:46:58;;;;;;;37.65;16.23;;;5.90;99.90;;;;;;5074610;28;20074;-73
2021/03/03 04:49:25;;;;;;;36.00;15.20;;;5.90;99.90;;;;;;5074980;28;20028;-73
2021/03/03 04:51:50;;;;;;;32.28;15.05;;;5.90;99.90;;;;;;5075509;28;20062;-73
2021/03/03 04:54:16;;;;;;;42.70;16.02;;;5.90;99.90;;;;;;5075171;28;20103;-73
2021/03/03 04:56:41;;;;;;;33.10;15.63;;;5.90;99.90;;;;;;5074102;28;20126;-73
2021/03/03 04:59:07;;;;;;;33.63;15.23;;;5.90;99.90;;;;;;5074613;28;20547;-73
2021/03/03 05:01:33;;;;;;;42.38;16.33;;;5.90;99.90;;;;;;5075398;28;20024;-73
2021/03/03 05:03:59;;;;;;;33.30;16.23;;;6.00;99.90;;;;;;5074756;28;20185;-73
2021/03/03 05:06:24;;;;;;;36.97;15.52;;;6.00;99.90;;;;;;5075494;28;20508;-73
2021/03/03 05:08:50;;;;;;;33.45;15.43;;;6.10;99.90;;;;;;5074343;28;20484;-72
2021/03/03 05:11:16;;;;;;;36.63;15.32;;;6.10;99.90;;;;;;5075219;28;20025;-73
2021/03/03 05:13:41;;;;;;;38.40;16.35;;;6.10;99.90;;;;;;5073217;28;20114;-73
2021/03/03 05:16:07;;;;;;;35.22;15.32;;;6.10;99.90;;;;;;5075500;28;20029;-73
2021/03/03 05:18:33;;;;;;;40.47;16.30;;;6.20;99.90;;;;;;5073392;28;20024;-74
2021/03/03 05:20:58;;;;;;;37.25;16.20;;;6.20;99.90;;;;;;5073973;28;20029;-73
2021/03/03 05:23:32;;;;;;;39.20;16.73;;;6.20;99.90;;;;;;5074635;28;20385;-71
2021/03/03 05:25:59;;;;;;;37.00;16.92;;;6.20;99.90;;;;;;5067999;28;20037;-72
2021/03/03 05:28:25;;;;;;;37.40;15.83;;;6.20;99.90;;;;;;5074751;28;20020;-72
2021/03/03 05:30:51;;;;;;;33.13;15.25;;;6.20;99.90;;;;;;5075078;28;20103;-73
2021/03/03 05:33:27;;;;;;;37.22;15.63;;;6.10;99.90;;;;;;5074300;28;20051;-71
2021/03/03 05:35:54;;;;;;;36.55;16.58;;;6.10;99.90;;;;;;5070116;28;20411;-73
2021/03/03 05:38:20;;;;;;;33.43;15.17;;;6.10;99.90;;;;;;5074834;28;20021;-72
2021/03/03 05:40:46;;;;;;;36.40;15.90;;;6.10;99.90;;;;;;5073753;28;20373;-71
2021/03/03 05:43:13;;;;;;;37.28;16.73;;;6.10;99.90;;;;;;5074301;28;20025;-71
2021/03/03 05:45:42;;;;;;;33.85;15.25;;;6.10;99.90;;;;;;5072781;28;20028;-71
2021/03/03 05:48:12;;;;;;;42.45;16.85;;;6.00;99.90;;;;;;5073541;28;20108;-72
2021/03/03 05:50:40;;;;;;;39.83;16.67;;;6.00;99.90;;;;;;5073176;28;20157;-72
2021/03/03 05:53:07;;;;;;;36.75;17.05;;;6.00;99.90;;;;;;5075061;28;20036;-72
2021/03/03 05:55:33;;;;;;;37.67;15.77;;;6.00;99.90;;;;;;5074306;28;20025;-72
2021/03/03 05:58:01;;;;;;;35.72;15.93;;;6.00;99.90;;;;;;5074640;28;20392;-72
2021/03/03 06:00:29;;;;;;;38.20;16.80;;;6.00;99.90;;;;;;5072742;28;20050;-73
2021/03/03 06:02:56;;;;;;;43.75;17.15;;;6.00;99.90;;;;;;5081269;28;20088;-74
2021/03/03 06:05:22;;;;;;;38.63;16.27;;;6.00;99.90;;;;;;5074248;28;20025;-73
2021/03/03 06:07:48;;;;;;;37.80;16.38;;;6.00;99.90;;;;;;5072549;28;20016;-71
2021/03/03 06:10:15;;;;;;;44.25;17.52;;;6.00;99.90;;;;;;5073509;28;20028;-72
2021/03/03 06:12:40;;;;;;;41.75;16.90;;;6.00;99.90;;;;;;5074149;28;20500;-72
2021/03/03 06:15:06;;;;;;;35.03;17.98;;;6.10;99.90;;;;;;5074505;28;20032;-73
2021/03/03 06:17:33;;;;;;;42.92;17.88;;;6.10;99.90;;;;;;5072740;28;20032;-73
2021/03/03 06:20:02;;;;;;;40.35;17.02;;;6.10;99.90;;;;;;5073883;28;20028;-73
2021/03/03 06:22:28;;;;;;;41.70;16.98;;;6.10;99.90;;;;;;5071945;28;20040;-73
2021/03/03 06:24:55;;;;;;;38.47;16.13;;;6.10;99.90;;;;;;5073453;28;20385;-73
2021/03/03 06:27:23;;;;;;;44.40;16.60;;;6.10;99.90;;;;;;5072346;28;20488;-73
2021/03/03 06:30:09;;;;;;;34.73;16.87;;;6.10;99.90;;;;;;5073905;28;20020;-72
2021/03/03 06:33:05;;;;;;;36.35;16.35;;;6.10;99.90;;;;;;5061237;28;20020;-72
2021/03/03 06:35:36;;;;;;;45.58;18.08;;;6.20;99.90;;;;;;5060447;28;20385;-72
2021/03/03 06:38:03;;;;;;;42.10;16.98;;;6.20;99.90;;;;;;5073402;28;20455;-72
2021/03/03 06:40:29;;;;;;;46.50;18.08;;;6.20;99.90;;;;;;5069903;28;20043;-73
2021/03/03 06:42:55;;;;;;;49.90;18.48;;;6.30;99.90;;;;;;5072337;28;20021;-72
2021/03/03 06:45:30;;;;;;;35.60;16.08;;;6.30;99.90;;;;;;5073221;28;20100;-71
2021/03/03 06:47:59;;;;;;;39.42;16.45;;;6.30;99.90;;;;;;5067890;28;20021;-73
2021/03/03 06:50:33;;;;;;;37.30;17.23;;;6.40;99.90;;;;;;5071583;28;20024;-75
2021/03/03 06:52:58;;;;;;;38.05;16.92;;;6.40;99.90;;;;;;5073187;28;20040;-73
2021/03/03 06:55:24;;;;;;;42.40;17.88;;;6.50;99.90;;;;;;5071785;28;20036;-73
2021/03/03 06:57:50;;;;;;;40.80;18.95;;;6.60;99.90;;;;;;5072621;28;20031;-71
2021/03/03 07:00:42;;;;;;;45.17;18.33;;;6.60;99.90;;;;;;5072894;28;20025;-71
2021/03/03 07:03:37;;;;;;;39.75;18.27;;;6.70;99.90;;;;;;5060134;28;20048;-71
2021/03/03 07:06:03;;;;;;;46.38;19.13;;;6.80;99.90;;;;;;5068486;28;20024;-71
2021/03/03 07:08:30;;;;;;;41.35;17.48;;;6.80;99.90;;;;;;5070502;28;20078;-71
2021/03/03 07:10:56;;;;;;;41.80;17.38;;;6.90;99.90;;;;;;5055035;28;20021;-72
2021/03/03 07:13:39;;;;;;;39.95;16.95;;;7.00;99.90;;;;;;5068438;28;20033;-72
2021/03/03 07:16:08;;;;;;;39.92;17.83;;;7.10;99.90;;;;;;5071311;28;20020;-73
2021/03/03 07:18:39;;;;;;;46.13;17.88;;;7.20;99.90;;;;;;5069935;28;20040;-73
2021/03/03 07:21:07;;;;;;;43.65;17.60;;;7.20;99.90;;;;;;5072173;28;20025;-72
2021/03/03 07:23:50;;;;;;;44.30;16.38;;;7.20;99.90;;;;;;5072619;28;20028;-74
2021/03/03 07:26:17;;;;;;;44.67;19.80;;;7.20;99.90;;;;;;5071584;28;20464;-72
2021/03/03 07:28:44;;;;;;;38.97;18.73;;;7.20;99.90;;;;;;5072809;28;20400;-73
2021/03/03 07:31:12;;;;;;;44.42;17.35;;;7.20;99.90;;;;;;5072531;28;20028;-73
2021/03/03 07:33:38;;;;;;;39.67;16.67;;;7.20;99.90;;;;;;5072868;28;20106;-73
2021/03/03 07:36:05;;;;;;;39.80;18.58;;;7.10;99.90;;;;;;5072646;28;20037;-73
2021/03/03 07:38:34;;;;;;;47.47;18.33;;;7.10;99.90;;;;;;5072579;28;20419;-73
2021/03/03 07:41:08;;;;;;;38.08;16.95;;;7.10;99.90;;;;;;5072455;28;20074;-73
2021/03/03 07:43:35;;;;;;;38.95;17.85;;;7.10;99.90;;;;;;5069280;28;20324;-73
2021/03/03 07:46:07;;;;;;;29.10;15.27;;;7.10;99.90;;;;;;5062769;28;20029;-73
2021/03/03 07:48:35;;;;;;;36.33;16.30;;;7.20;99.90;;;;;;5064584;28;20025;-73
2021/03/03 07:51:04;;;;;;;39.55;17.88;;;7.20;99.90;;;;;;5071125;28;20023;-73
2021/03/03 07:53:30;;;;;;;37.45;17.40;;;7.20;99.90;;;;;;5066194;28;20044;-73
2021/03/03 07:55:58;;;;;;;32.40;16.77;;;7.20;99.90;;;;;;5070588;28;20017;-72
2021/03/03 07:58:27;;;;;;;31.08;15.38;;;7.10;99.90;;;;;;5067820;28;20032;-72
2021/03/03 08:00:53;;;;;;;38.15;16.15;;;7.10;99.90;;;;;;5066243;28;20032;-72
2021/03/03 08:03:43;;;;;;;41.92;16.25;;;7.20;99.90;;;;;;5068628;28;20063;-72
2021/03/03 08:06:39;;;;;;;26.17;12.90;;;7.10;99.90;;;;;;5062857;28;20452;-72
2021/03/03 08:09:05;;;;;;;19.25;10.02;;;6.90;99.90;;;;;;5057022;28;20041;-73
2021/03/03 08:11:31;;;;;;;23.92;10.95;;;6.70;99.90;;;;;;5071122;28;20025;-72
2021/03/03 08:13:57;;;;;;;20.17;9.93;;;6.60;99.90;;;;;;5071735;28;20025;-73
2021/03/03 08:16:23;;;;;;;26.92;10.43;;;6.60;99.90;;;;;;5070748;28;20067;-73
2021/03/03 08:18:56;;;;;;;16.90;9.27;;;6.70;99.90;;;;;;5069365;28;20040;-72
2021/03/03 08:21:24;;;;;;;22.23;9.00;;;6.60;99.90;;;;;;5071190;28;20108;-71
2021/03/03 08:24:00;;;;;;;13.60;8.45;;;6.40;99.90;;;;;;5070584;28;20094;-73
2021/03/03 08:26:29;;;;;;;20.90;9.10;;;6.30;99.90;;;;;;5069362;28;20066;-75
2021/03/03 08:29:16;;;;;;;16.42;8.27;;;6.20;99.90;;;;;;5070764;28;20503;-74
2021/03/03 08:34:50;;;;;;;18.23;8.75;;;6.10;99.90;;;;;;5052715;28;20032;-72
2021/03/03 08:37:28;;;;;;;19.40;9.57;;;6.20;99.90;;;;;;5069752;28;20420;-72
2021/03/03 08:39:53;;;;;;;14.00;8.80;;;6.10;99.90;;;;;;5070718;28;20070;-72
2021/03/03 08:42:31;;;;;;;15.63;9.73;;;6.10;99.90;;;;;;5083157;28;20464;-73
2021/03/03 08:45:02;;;;;;;16.25;9.23;;;6.20;99.90;;;;;;5092614;28;20468;-72
2021/03/03 08:47:51;;;;;;;14.45;8.60;;;6.20;99.90;;;;;;5091409;28;20062;-73
2021/03/03 08:50:35;;;;;;;13.98;9.02;;;6.30;99.90;;;;;;5054065;28;20033;-73
2021/03/03 08:53:21;;;;;;;13.63;9.00;;;6.30;99.90;;;;;;5072074;28;20086;-73
2021/03/03 08:55:48;;;;;;;16.13;9.07;;;6.30;99.90;;;;;;5072064;28;20414;-72
2021/03/03 08:58:58;;;;;;;18.30;9.60;;;6.20;99.90;;;;;;5072836;28;20036;-73
2021/03/03 09:02:02;;;;;;;20.02;9.45;;;6.00;99.90;;;;;;5074722;28;20078;-71
2021/03/03 09:04:49;;;;;;;21.52;11.05;;;5.70;99.90;;;;;;5073081;28;20501;-71
2021/03/03 09:07:18;;;;;;;18.80;10.93;;;5.40;99.90;;;;;;5073242;28;20047;-69
2021/03/03 09:09:45;;;;;;;20.25;11.30;;;5.50;99.90;;;;;;5075297;28;20020;-71
2021/03/03 09:12:14;;;;;;;27.15;10.77;;;5.60;99.90;;;;;;5073267;28;20068;-72
2021/03/03 09:14:41;;;;;;;21.83;11.45;;;5.60;99.90;;;;;;5056390;28;20021;-71
2021/03/03 09:17:12;;;;;;;24.30;12.57;;;5.50;99.90;;;;;;5074995;28;20036;-72
2021/03/03 09:19:38;;;;;;;23.23;11.93;;;5.40;99.90;;;;;;5071864;28;20659;-72
2021/03/03 09:22:14;;;;;;;22.50;11.73;;;5.40;99.90;;;;;;5073985;28;20032;-72
2021/03/03 09:24:40;;;;;;;25.10;11.70;;;5.50;99.90;;;;;;5075550;28;20039;-72
2021/03/03 09:27:08;;;;;;;24.73;11.98;;;5.50;99.90;;;;;;5073756;28;20111;-72
2021/03/03 09:29:37;;;;;;;26.27;12.18;;;5.50;99.90;;;;;;5055470;28;20120;-72
2021/03/03 09:32:09;;;;;;;;;;;5.50;99.90;;;;;;5073802;28;20025;-72
2021/03/03 09:34:42;;;;;;;27.70;13.07;;;5.50;99.90;;;;;;5073824;28;19915;-72
2021/03/03 09:37:08;;;;;;;28.60;13.32;;;5.60;99.90;;;;;;5074673;28;20036;-72
2021/03/03 09:39:33;;;;;;;23.33;12.13;;;5.60;99.90;;;;;;5074557;28;20032;-72
2021/03/03 09:42:08;;;;;;;28.70;12.57;;;5.70;99.90;;;;;;5073134;28;20032;-72
2021/03/03 09:44:47;;;;;;;25.33;13.88;;;5.90;99.90;;;;;;5074990;28;20504;-72
2021/03/03 09:47:21;;;;;;;34.75;14.20;;;5.90;99.90;;;;;;5066071;28;20055;-72
2021/03/03 09:49:46;;;;;;;31.88;14.18;;;6.10;99.90;;;;;;5074970;28;20029;-72
2021/03/03 09:52:12;;;;;;;28.23;14.38;;;6.20;99.90;;;;;;5074970;28;20031;-72
2021/03/03 09:54:38;;;;;;;25.15;13.88;;;6.30;99.90;;;;;;5073499;28;20032;-72
2021/03/03 09:57:09;;;;;;;27.15;15.00;;;6.40;99.90;;;;;;5074985;28;20032;-72
2021/03/03 09:59:36;;;;;;;30.63;14.85;;;6.50;99.90;;;;;;5073543;28;20025;-73
2021/03/03 10:02:04;;;;;;;32.47;15.57;;;6.60;99.90;;;;;;5073394;28;20128;-73
2021/03/03 10:04:30;;;;;;;32.70;15.63;;;6.70;99.90;;;;;;5072873;28;20044;-72
2021/03/03 10:06:58;;;;;;;25.95;14.20;;;6.90;99.90;;;;;;5074642;28;20066;-71
2021/03/03 10:09:24;;;;;;;25.10;15.10;;;7.10;99.90;;;;;;5073467;28;20035;-72
2021/03/03 10:11:50;;;;;;;26.30;14.35;;;7.40;99.90;;;;;;5074390;28;20036;-72
2021/03/03 10:14:15;;;;;;;24.40;14.35;;;7.40;99.90;;;;;;5074667;28;20388;-72
2021/03/03 10:16:41;;;;;;;28.35;14.40;;;7.60;99.90;;;;;;5073218;28;20031;-72
2021/03/03 10:19:09;;;;;;;26.60;14.25;;;7.80;99.90;;;;;;5073159;28;20077;-72
2021/03/03 10:21:45;;;;;;;34.08;15.27;;;7.80;99.90;;;;;;5072239;28;20054;-71
2021/03/03 10:24:18;;;;;;;30.38;15.88;;;7.60;99.90;;;;;;5073638;28;20087;-71
2021/03/03 10:26:49;;;;;;;36.72;17.08;;;7.70;99.90;;;;;;5072327;28;20036;-71
2021/03/03 10:29:32;;;;;;;37.88;17.48;;;7.60;99.90;;;;;;5073518;28;20029;-72
2021/03/03 10:32:14;;;;;;;31.95;15.52;;;7.60;99.90;;;;;;5086226;28;20509;-71
2021/03/03 10:34:41;;;;;;;38.33;17.80;;;7.60;99.90;;;;;;5073151;28;20500;-71
2021/03/03 10:37:07;;;;;;;38.10;19.92;;;7.70;99.90;;;;;;5073514;28;20029;-72
2021/03/03 10:39:34;;;;;;;40.10;20.63;;;7.60;99.90;;;;;;5072645;28;20028;-72
2021/03/03 10:42:05;;;;;;;51.95;21.50;;;7.70;99.90;;;;;;5072366;28;20032;-72
2021/03/03 10:44:42;;;;;;;44.58;21.30;;;7.70;99.90;;;;;;5079156;28;20028;-72
2021/03/03 10:47:11;;;;;;;42.08;20.10;;;7.70;99.90;;;;;;5094181;28;20620;-73
2021/03/03 10:49:39;;;;;;;46.92;21.05;;;7.80;99.90;;;;;;5077455;28;20469;-72
2021/03/03 10:52:19;;;;;;;38.20;21.52;;;7.60;99.90;;;;;;5072478;28;20086;-72
2021/03/03 10:54:44;;;;;;;48.35;22.02;;;7.80;99.90;;;;;;5071812;28;20043;-73
2021/03/03 10:57:10;;;;;;;49.20;23.67;;;7.80;99.90;;;;;;5071911;28;20028;-72
2021/03/03 10:59:37;;;;;;;55.63;24.02;;;7.70;99.90;;;;;;5072550;28;20542;-72
2021/03/03 11:02:05;;;;;;;49.50;24.40;;;7.60;99.90;;;;;;5073742;28;20020;-72
2021/03/03 11:04:41;;;;;;;34.40;16.90;;;7.70;99.90;;;;;;5070865;28;20511;-73
2021/03/03 11:07:12;;;;;;;50.97;23.83;;;7.90;99.90;;;;;;5072603;28;20028;-73
2021/03/03 11:09:38;;;;;;;51.33;23.67;;;7.90;99.90;;;;;;5071853;28;20127;-70
2021/03/03 11:12:05;;;;;;;54.55;25.30;;;7.90;99.90;;;;;;5071223;28;20036;-73
2021/03/03 11:14:32;;;;;;;53.33;25.25;;;7.90;99.90;;;;;;5072241;28;20032;-71
2021/03/03 11:16:59;;;;;;;48.30;24.52;;;8.00;99.90;;;;;;5052300;28;20452;-71
2021/03/03 11:19:26;;;;;;;46.13;23.98;;;8.10;99.90;;;;;;5064875;28;20033;-71
2021/03/03 11:21:52;;;;;;;47.20;24.02;;;8.30;99.90;;;;;;5073482;28;20017;-72
2021/03/03 11:24:20;;;;;;;45.05;23.50;;;8.50;99.90;;;;;;5073247;28;20052;-70
2021/03/03 11:26:46;;;;;;;43.87;22.20;;;8.90;99.90;;;;;;5073337;28;20477;-71
2021/03/03 11:29:12;;;;;;;46.17;22.70;;;9.00;99.90;;;;;;5073305;28;20746;-72
2021/03/03 11:31:39;;;;;;;53.00;23.92;;;9.10;99.90;;;;;;5071810;28;20058;-72
2021/03/03 11:34:05;;;;;;;45.28;23.13;;;9.10;99.90;;;;;;5073200;28;20032;-72
2021/03/03 11:36:31;;;;;;;49.60;23.20;;;9.10;99.90;;;;;;5072752;28;20032;-72
2021/03/03 11:38:57;;;;;;;47.70;23.70;;;9.20;99.90;;;;;;5072685;28;20112;-72
2021/03/03 11:41:23;;;;;;;47.17;22.95;;;9.30;99.90;;;;;;5073067;28;20035;-72
2021/03/03 11:43:49;;;;;;;48.55;24.00;;;9.20;99.90;;;;;;5072862;28;20032;-72
2021/03/03 11:46:15;;;;;;;47.00;22.08;;;9.20;99.90;;;;;;5052991;28;20060;-72
2021/03/03 11:48:41;;;;;;;42.28;21.77;;;9.40;99.90;;;;;;5053097;28;20469;-71
2021/03/03 11:51:06;;;;;;;43.70;22.23;;;9.60;99.90;;;;;;5055100;28;20025;-72
2021/03/03 11:53:32;;;;;;;43.03;22.58;;;9.70;99.90;;;;;;5071693;28;20513;-71
2021/03/03 11:55:58;;;;;;;51.25;22.52;;;9.90;99.90;;;;;;5072999;28;20036;-69
2021/03/03 11:58:24;;;;;;;44.85;22.67;;;10.30;99.90;;;;;;5071550;28;20469;-71
2021/03/03 12:00:49;;;;;;;45.95;22.42;;;10.40;99.90;;;;;;5072655;28;20037;-72
2021/03/03 12:03:15;;;;;;;51.22;23.73;;;10.40;99.90;;;;;;5072951;28;20070;-72
2021/03/03 12:05:41;;;;;;;46.92;23.48;;;10.30;99.90;;;;;;5072968;28;20068;-72
2021/03/03 12:08:08;;;;;;;48.38;24.23;;;10.00;99.90;;;;;;5072363;28;20536;-71
2021/03/03 12:10:35;;;;;;;44.83;23.23;;;10.10;99.90;;;;;;5071233;28;20048;-70
2021/03/03 12:13:01;;;;;;;54.80;24.80;;;10.20;99.90;;;;;;5071964;28;20052;-71
2021/03/03 12:15:27;;;;;;;52.85;25.08;;;10.20;99.90;;;;;;5072469;28;20021;-72
2021/03/03 12:17:53;;;;;;;47.38;23.27;;;9.90;99.90;;;;;;5072413;28;20455;-71
2021/03/03 12:20:19;;;;;;;50.88;23.00;;;9.80;99.90;;;;;;5072309;28;20131;-72
2021/03/03 12:22:46;;;;;;;51.78;25.33;;;10.00;99.90;;;;;;5071261;28;20028;-71
2021/03/03 12:25:12;;;;;;;54.20;26.90;;;10.10;99.90;;;;;;5072489;28;20059;-71
2021/03/03 12:27:41;;;;;;;59.17;26.45;;;10.20;99.90;;;;;;5070306;28;20037;-70
2021/03/03 12:30:07;;;;;;;54.97;25.60;;;10.10;99.90;;;;;;5072441;28;20027;-71
2021/03/03 12:32:33;;;;;;;53.97;25.23;;;10.10;99.90;;;;;;5073950;28;20044;-71
2021/03/03 12:34:59;;;;;;;52.22;24.70;;;10.20;99.90;;;;;;5075316;28;20104;-71
2021/03/03 12:37:25;;;;;;;50.53;24.38;;;10.20;99.90;;;;;;5072980;28;20052;-71
2021/03/03 12:39:52;;;;;;;63.42;24.17;;;10.20;99.90;;;;;;5074493;28;20511;-72
2021/03/03 12:42:17;;;;;;;64.20;28.27;;;10.40;99.90;;;;;;5074804;28;20377;-72
2021/03/03 12:44:43;;;;;;;61.85;28.50;;;10.40;99.90;;;;;;5081386;28;20042;-72
2021/03/03 12:47:09;;;;;;;62.60;28.05;;;10.20;99.90;;;;;;5074182;28;20048;-72
2021/03/03 12:49:34;;;;;;;57.97;26.90;;;10.30;99.90;;;;;;5073700;28;20020;-71
2021/03/03 12:52:00;;;;;;;51.47;25.60;;;10.30;99.90;;;;;;5072943;28;20467;-71